Time;durP1;ratioP1;P1;durP2;ratioP2;P2;SDS_P1;SDS_P2;PMS_P1;PMS_P2;Temp;Humidity;BMP_temperature;BMP_pressure;BME280_temperature;BME280_humidity;BME280_pressure;Samples;Min_cycle;Max_cycle;Signal;HPM_P1;HPM_P2
2022/08/18 00:01:04;;;;;;;11.57;8.50;;;;;;;18.53;81.60;98028.53;4875353;29;20113;-73
2022/08/18 00:03:31;;;;;;;9.88;8.88;;;;;;;18.42;82.08;98030.03;4872627;29;20144;-74
2022/08/18 00:06:18;;;;;;;9.45;8.48;;;;;;;18.37;82.73;98021.84;4862172;29;20045;-74
2022/08/18 00:08:44;;;;;;;12.13;8.85;;;;;;;18.35;83.49;98021.22;4865908;29;20460;-74
2022/08/18 00:11:11;;;;;;;9.48;8.48;;;;;;;18.33;83.83;98024.13;4862575;29;20097;-74
2022/08/18 00:13:38;;;;;;;10.65;9.20;;;;;;;18.28;84.12;98028.47;4901228;29;20044;-74
2022/08/18 00:16:05;;;;;;;10.10;8.98;;;;;;;18.23;84.63;98026.44;4877733;29;20045;-74
2022/08/18 00:18:31;;;;;;;11.65;10.25;;;;;;;18.25;85.23;98023.56;4869139;29;20055;-74
2022/08/18 00:20:58;;;;;;;15.88;10.35;;;;;;;18.18;85.93;98027.06;4873496;29;20077;-74
2022/08/18 00:23:31;;;;;;;11.90;10.45;;;;;;;18.21;85.85;98021.28;4868336;29;20063;-74
2022/08/18 00:25:58;;;;;;;;;;;;;;;18.13;86.60;98026.88;4866720;29;20494;-75
2022/08/18 00:28:25;;;;;;;14.18;10.32;;;;;;;18.13;86.58;98018.84;4867630;29;20063;-74
2022/08/18 00:30:52;;;;;;;17.90;10.90;;;;;;;18.04;86.80;98030.03;4878657;29;20057;-74
2022/08/18 00:33:20;;;;;;;11.48;10.32;;;;;;;17.95;86.55;98016.88;4874044;29;20044;-74
2022/08/18 00:35:46;;;;;;;11.75;10.40;;;;;;;17.91;86.63;98017.53;4868097;29;20058;-74
2022/08/18 00:38:13;;;;;;;12.75;11.55;;;;;;;17.83;86.96;98013.22;4870910;29;20593;-74
2022/08/18 00:40:52;;;;;;;14.88;11.30;;;;;;;17.78;87.54;98004.97;4862000;29;20084;-74
2022/08/18 00:43:47;;;;;;;12.02;10.27;;;;;;;17.79;87.34;98003.97;4868282;29;20052;-74
2022/08/18 00:46:22;;;;;;;15.45;12.02;;;;;;;17.73;87.84;98008.28;4900145;29;20045;-73
2022/08/18 00:48:49;;;;;;;13.95;11.20;;;;;;;17.74;88.02;98015.25;4872099;29;20048;-74
2022/08/18 00:51:25;;;;;;;13.68;10.68;;;;;;;17.77;88.47;97998.81;4871803;29;20049;-74
2022/08/18 00:54:01;;;;;;;16.92;11.23;;;;;;;17.81;88.47;98004.56;4880515;29;20059;-74
2022/08/18 00:56:34;;;;;;;11.98;10.80;;;;;;;17.85;88.54;98002.28;4870098;29;20060;-74
2022/08/18 00:59:08;;;;;;;13.05;11.65;;;;;;;17.86;88.31;97998.59;4866036;29;20057;-74
2022/08/18 01:01:36;;;;;;;13.50;11.18;;;;;;;17.81;88.60;97999.22;4865004;29;20045;-74
2022/08/18 01:04:09;;;;;;;13.38;12.10;;;;;;;17.79;88.56;97990.59;4868076;29;20059;-74
2022/08/18 01:06:40;;;;;;;;;;;;;;;17.80;88.62;97986.88;4899075;29;20045;-74
2022/08/18 01:09:07;;;;;;;13.35;11.95;;;;;;;17.80;88.69;97984.22;4872100;29;19924;-73
2022/08/18 01:11:36;;;;;;;16.75;12.70;;;;;;;17.86;88.93;97991.38;4864685;29;20050;-74
2022/08/18 01:14:05;;;;;;;13.55;12.25;;;;;;;17.87;89.05;97986.84;4866573;29;20477;-74
2022/08/18 01:22:48;;;;;;;14.73;12.98;;;;;;;17.88;89.40;97978.63;4873634;29;20056;-73
2022/08/18 01:28:03;;;;;;;14.20;12.10;;;;;;;17.76;88.92;97954.34;4864692;29;20060;-74
2022/08/18 01:30:43;;;;;;;16.63;12.52;;;;;;;17.74;89.04;97964.41;4894505;29;20608;-74
2022/08/18 01:33:11;;;;;;;11.48;10.35;;;;;;;17.74;89.06;97955.56;4868714;29;20068;-73
2022/08/18 01:35:39;;;;;;;15.10;12.32;;;;;;;17.75;89.03;97954.56;4865929;29;20053;-73
2022/08/18 01:38:08;;;;;;;13.32;11.90;;;;;;;17.80;88.86;97945.91;4869234;29;20061;-74
2022/08/18 01:40:34;;;;;;;13.63;12.02;;;;;;;17.78;89.13;97938.91;4868148;29;20053;-74
2022/08/18 01:43:21;;;;;;;13.60;12.20;;;;;;;17.78;88.97;97930.88;4876188;29;20124;-74
2022/08/18 01:45:48;;;;;;;14.32;12.82;;;;;;;17.69;89.27;97923.28;4864711;29;20053;-74
2022/08/18 01:48:15;;;;;;;14.70;13.30;;;;;;;17.66;89.20;97921.03;4873064;29;20049;-74
2022/08/18 01:50:43;;;;;;;14.45;12.75;;;;;;;17.64;89.41;97923.09;4863398;29;20057;-74
2022/08/18 01:53:10;;;;;;;13.77;12.43;;;;;;;17.63;89.61;97922.28;4863067;29;20068;-73
2022/08/18 01:55:43;;;;;;;14.70;13.30;;;;;;;17.62;89.77;97919.84;4872017;29;20048;-74
2022/08/18 01:58:11;;;;;;;17.17;14.57;;;;;;;17.65;90.00;97911.38;4869150;29;20057;-73
2022/08/18 02:00:37;;;;;;;16.02;14.02;;;;;;;17.62;90.13;97909.97;4871223;29;20046;-74
2022/08/18 02:03:07;;;;;;;15.15;12.75;;;;;;;17.61;90.17;97905.63;4864539;29;20054;-74
2022/08/18 02:05:40;;;;;;;17.55;13.20;;;;;;;17.63;89.97;97905.41;4861617;29;20057;-74
2022/08/18 02:08:08;;;;;;;15.60;13.75;;;;;;;17.64;89.68;97905.22;4862775;29;20985;-74
2022/08/18 02:10:35;;;;;;;14.88;13.15;;;;;;;17.65;89.79;97903.34;4871325;29;20080;-73
2022/08/18 02:13:02;;;;;;;14.23;12.75;;;;;;;17.63;89.79;97906.22;4867612;29;20072;-74
2022/08/18 02:15:30;;;;;;;14.88;13.38;;;;;;;17.60;89.91;97905.84;4868441;29;20061;-74
2022/08/18 02:17:57;;;;;;;15.93;13.48;;;;;;;17.55;89.92;97901.94;4872416;29;20049;-74
2022/08/18 02:20:24;;;;;;;14.48;13.02;;;;;;;17.52;89.95;97907.72;4865242;29;20061;-74
2022/08/18 02:22:51;;;;;;;19.30;14.10;;;;;;;17.46;90.04;97897.06;4868478;29;20053;-74
2022/08/18 02:25:18;;;;;;;17.58;15.05;;;;;;;17.45;90.09;97898.06;4863642;29;20052;-74
2022/08/18 02:27:45;;;;;;;16.13;13.50;;;;;;;17.48;90.11;97893.16;4868503;29;20049;-74
2022/08/18 02:30:14;;;;;;;14.73;13.27;;;;;;;17.51;90.18;97892.72;4864126;29;20061;-74
2022/08/18 02:32:41;;;;;;;15.13;12.85;;;;;;;17.57;90.38;97895.56;4866957;29;20068;-74
2022/08/18 02:35:10;;;;;;;16.55;14.65;;;;;;;17.63;90.25;97902.75;4867801;29;20057;-74
2022/08/18 02:37:38;;;;;;;17.45;15.32;;;;;;;17.65;90.60;97900.69;4868768;29;20156;-74
2022/08/18 02:40:11;;;;;;;15.73;14.15;;;;;;;17.66;90.39;97902.31;4862475;29;20049;-74
2022/08/18 02:42:45;;;;;;;15.90;14.25;;;;;;;17.64;90.57;97896.34;4864721;29;20050;-74
2022/08/18 02:45:12;;;;;;;16.92;14.77;;;;;;;17.52;90.22;97898.88;4866713;29;20055;-74
2022/08/18 02:47:39;;;;;;;16.88;15.25;;;;;;;17.45;90.38;97901.56;4877616;29;20072;-74
2022/08/18 02:50:09;;;;;;;19.45;17.20;;;;;;;17.52;90.62;97897.03;4875739;29;20453;-74
2022/08/18 02:52:36;;;;;;;20.73;17.85;;;;;;;17.55;90.83;97901.94;4865528;29;20050;-74
2022/08/18 02:55:06;;;;;;;22.08;17.27;;;;;;;17.61;90.76;97896.78;4860216;29;20048;-74
2022/08/18 02:57:33;;;;;;;18.23;16.40;;;;;;;17.61;90.73;97896.78;4864672;29;20060;-74
2022/08/18 02:59:59;;;;;;;19.02;16.95;;;;;;;17.57;90.60;97906.28;4866796;29;20574;-74
2022/08/18 03:02:26;;;;;;;21.55;16.75;;;;;;;17.54;90.61;97905.66;4879013;29;20049;-74
2022/08/18 03:04:53;;;;;;;19.00;17.08;;;;;;;17.53;90.75;97916.56;4873426;29;20435;-74
2022/08/18 03:07:20;;;;;;;18.27;16.25;;;;;;;17.51;90.57;97908.75;4874034;29;20055;-74
2022/08/18 03:09:46;;;;;;;17.45;14.88;;;;;;;17.45;90.76;97917.63;4861826;29;20600;-74
2022/08/18 03:12:13;;;;;;;17.75;15.85;;;;;;;17.50;90.41;97912.44;4868140;29;20125;-74
2022/08/18 03:14:39;;;;;;;20.48;16.02;;;;;;;17.49;90.48;97916.16;4867910;29;20073;-74
2022/08/18 03:17:07;;;;;;;17.05;15.25;;;;;;;17.49;90.57;97910.00;4869218;29;20509;-74
2022/08/18 03:19:34;;;;;;;19.65;16.95;;;;;;;17.51;90.78;97906.09;4875029;29;20044;-74
2022/08/18 03:22:01;;;;;;;18.55;16.65;;;;;;;17.46;90.67;97903.22;4863795;29;20404;-74
2022/08/18 03:24:30;;;;;;;17.98;16.08;;;;;;;17.47;90.59;97904.84;4868463;29;20057;-73
2022/08/18 03:26:58;;;;;;;20.92;18.48;;;;;;;17.45;90.75;97906.09;4892013;29;20109;-74
2022/08/18 03:29:25;;;;;;;17.73;15.93;;;;;;;17.44;90.80;97902.59;4869416;29;20064;-73
2022/08/18 03:31:58;;;;;;;16.88;15.25;;;;;;;17.45;90.88;97909.59;4865738;29;20041;-73
2022/08/18 03:34:25;;;;;;;18.83;15.90;;;;;;;17.48;90.71;97897.66;4861677;29;20060;-74
2022/08/18 03:36:52;;;;;;;18.45;16.55;;;;;;;17.48;90.95;97900.31;4872874;29;20045;-74
2022/08/18 03:39:21;;;;;;;19.20;15.65;;;;;;;17.44;90.88;97894.59;4878322;29;20493;-73
2022/08/18 03:41:49;;;;;;;16.27;14.68;;;;;;;17.43;90.74;97895.63;4869800;29;20049;-74
2022/08/18 03:44:32;;;;;;;17.15;14.13;;;;;;;17.42;90.84;97887.81;4868181;29;20595;-74
2022/08/18 03:47:01;;;;;;;16.25;14.25;;;;;;;17.43;90.69;97895.63;4859454;29;20088;-73
2022/08/18 03:49:28;;;;;;;16.08;14.38;;;;;;;17.42;90.72;97887.81;4870328;29;20124;-74
2022/08/18 03:51:58;;;;;;;15.95;14.32;;;;;;;17.39;90.55;97882.88;4876356;29;20049;-74
2022/08/18 03:54:25;;;;;;;15.18;13.65;;;;;;;17.37;90.76;97884.94;4867367;29;20513;-73
2022/08/18 03:56:53;;;;;;;15.50;13.80;;;;;;;17.38;90.58;97882.06;4867825;29;20050;-74
2022/08/18 03:59:23;;;;;;;15.82;14.07;;;;;;;17.35;90.71;97885.13;4867459;29;20052;-74
2022/08/18 04:01:51;;;;;;;15.32;13.60;;;;;;;17.35;90.58;97874.44;4892125;29;20064;-74
2022/08/18 04:04:21;;;;;;;17.02;14.55;;;;;;;17.33;90.82;97879.22;4861843;29;20147;-74
2022/08/18 04:07:03;;;;;;;15.85;14.15;;;;;;;17.30;90.68;97884.97;4869328;29;20056;-74
2022/08/18 04:09:31;;;;;;;15.70;14.17;;;;;;;17.24;90.59;97877.78;4876415;29;20925;-73
2022/08/18 04:12:04;;;;;;;16.65;14.05;;;;;;;17.23;90.62;97862.78;4893237;29;20314;-74
2022/08/18 04:14:32;;;;;;;14.93;13.30;;;;;;;17.20;90.60;97871.22;4868122;29;20053;-74
2022/08/18 04:16:58;;;;;;;16.83;14.63;;;;;;;17.24;90.61;97872.44;4864806;29;20049;-74
2022/08/18 04:19:25;;;;;;;16.13;14.50;;;;;;;17.41;90.59;97875.47;4869348;29;20053;-74
2022/08/18 04:21:55;;;;;;;16.15;14.45;;;;;;;17.40;90.67;97882.66;4865315;29;20058;-74
2022/08/18 04:24:22;;;;;;;16.77;14.73;;;;;;;17.38;90.63;97874.06;4876138;29;20053;-73
2022/08/18 04:26:50;;;;;;;16.33;14.65;;;;;;;17.29;90.32;97877.97;4871025;29;20060;-74
2022/08/18 04:29:19;;;;;;;20.83;15.30;;;;;;;17.21;90.37;97888.91;4873574;29;20136;-74
2022/08/18 04:31:47;;;;;;;18.38;15.07;;;;;;;17.09;90.54;97892.22;4870455;29;20053;-74
2022/08/18 04:34:14;;;;;;;22.77;16.77;;;;;;;17.03;90.56;97894.91;4872960;29;20049;-74
2022/08/18 04:36:41;;;;;;;18.35;15.18;;;;;;;16.99;90.77;97897.19;4861144;29;20075;-73
2022/08/18 04:39:09;;;;;;;18.35;15.73;;;;;;;17.01;90.90;97903.16;4864372;29;20063;-74
2022/08/18 04:41:37;;;;;;;19.83;15.98;;;;;;;17.06;90.77;97899.81;4899826;29;20060;-76
2022/08/18 04:44:07;;;;;;;19.83;15.07;;;;;;;17.09;90.95;97902.09;4882830;29;20053;-76
2022/08/18 04:46:38;;;;;;;17.35;15.38;;;;;;;17.20;90.85;97911.34;4879466;29;20048;-77
2022/08/18 04:49:08;;;;;;;16.83;15.10;;;;;;;17.15;90.94;97911.13;4854930;29;20049;-77
2022/08/18 04:51:35;;;;;;;18.75;15.48;;;;;;;17.18;90.62;97908.84;4872597;29;20136;-76
2022/08/18 04:54:23;;;;;;;17.02;15.25;;;;;;;17.28;90.74;97905.75;4866081;29;20065;-77
2022/08/18 04:56:50;;;;;;;19.40;16.70;;;;;;;17.32;90.46;97904.28;4877674;29;20048;-76
2022/08/18 04:59:17;;;;;;;22.50;16.27;;;;;;;17.37;90.41;97919.69;4875533;29;20049;-76
2022/08/18 05:01:46;;;;;;;20.25;17.58;;;;;;;17.32;90.43;97917.66;4876730;29;20095;-76
2022/08/18 05:04:14;;;;;;;18.10;16.13;;;;;;;17.42;90.18;97926.06;4866715;29;20037;-77
2022/08/18 05:06:42;;;;;;;19.35;17.33;;;;;;;17.54;90.57;97931.59;4867340;29;20045;-77
2022/08/18 05:09:11;;;;;;;18.25;16.35;;;;;;;17.63;90.39;97932.97;4871349;29;20054;-77
2022/08/18 05:11:43;;;;;;;16.27;14.68;;;;;;;17.79;90.00;97937.06;4895098;29;20489;-76
2022/08/18 05:14:10;;;;;;;15.80;14.10;;;;;;;17.77;89.70;97931.91;4874688;29;20056;-77
2022/08/18 05:16:37;;;;;;;18.90;15.40;;;;;;;17.80;89.54;97933.38;4895859;29;20064;-77
2022/08/18 05:19:20;;;;;;;19.58;15.00;;;;;;;17.86;89.23;97935.19;4872036;29;20052;-77
2022/08/18 05:21:49;;;;;;;21.60;15.48;;;;;;;17.93;89.03;97930.63;4867051;29;20527;-76
2022/08/18 05:24:17;;;;;;;16.73;14.88;;;;;;;18.01;88.92;97920.69;4857979;29;20110;-77
2022/08/18 05:26:44;;;;;;;19.20;14.27;;;;;;;18.10;88.34;97914.06;4871839;29;20049;-76
2022/08/18 05:29:11;;;;;;;17.17;13.20;;;;;;;18.12;86.95;97917.34;4873873;29;20049;-77
2022/08/18 05:31:46;;;;;;;13.65;12.07;;;;;;;18.20;86.48;97911.75;4862041;29;20053;-75
2022/08/18 05:34:14;;;;;;;15.48;13.82;;;;;;;18.25;87.11;97903.88;4872594;29;20244;-74
2022/08/18 05:36:56;;;;;;;15.27;13.13;;;;;;;18.30;87.03;97901.38;4898080;29;20137;-74
2022/08/18 05:39:28;;;;;;;14.27;12.75;;;;;;;18.27;86.60;97912.50;4872638;29;20053;-74
2022/08/18 05:42:05;;;;;;;16.50;13.23;;;;;;;18.24;86.47;97907.59;4866976;29;20481;-74
2022/08/18 05:44:35;;;;;;;18.40;13.88;;;;;;;18.22;86.71;97915.03;4866473;29;20474;-74
2022/08/18 05:47:10;;;;;;;21.52;13.30;;;;;;;18.20;86.88;97917.09;4872287;29;20052;-74
2022/08/18 05:49:37;;;;;;;22.35;13.68;;;;;;;18.28;86.82;97921.38;4870362;29;20066;-74
2022/08/18 05:52:07;;;;;;;21.80;13.13;;;;;;;18.36;86.63;97915.75;4871130;29;20072;-74
2022/08/18 05:57:31;;;;;;;13.57;11.82;;;;;;;18.69;85.02;97912.00;4887362;29;20048;-73
2022/08/18 05:59:57;;;;;;;19.77;12.87;;;;;;;18.69;84.82;97909.31;4886294;29;20409;-74
2022/08/18 06:02:33;;;;;;;14.93;13.43;;;;;;;18.75;83.50;97901.25;4865215;29;20497;-74
2022/08/18 06:05:10;;;;;;;17.30;13.25;;;;;;;18.80;83.50;97900.56;4865782;29;20057;-74
2022/08/18 06:07:45;;;;;;;17.80;13.07;;;;;;;18.91;83.19;97905.25;4894760;29;20060;-74
2022/08/18 06:10:13;;;;;;;13.50;11.88;;;;;;;19.05;83.57;97916.66;4869498;29;20076;-73
2022/08/18 06:12:45;;;;;;;13.65;12.23;;;;;;;19.06;82.69;97921.81;4864796;29;20041;-74
2022/08/18 06:15:15;;;;;;;15.98;12.27;;;;;;;19.23;82.44;97923.91;4869262;29;20056;-74
2022/08/18 06:17:48;;;;;;;13.50;12.10;;;;;;;19.30;82.02;97921.97;4865135;29;21381;-74
2022/08/18 06:20:41;;;;;;;14.25;12.38;;;;;;;19.43;80.82;97926.34;4868367;29;20053;-74
2022/08/18 06:23:16;;;;;;;14.00;12.15;;;;;;;19.54;81.18;97933.69;4870918;29;20045;-74
2022/08/18 06:26:00;;;;;;;14.95;11.95;;;;;;;19.57;80.83;97945.81;4872464;29;20055;-74
2022/08/18 06:28:38;;;;;;;22.25;12.75;;;;;;;19.66;80.92;97949.84;4870921;29;20049;-73
2022/08/18 06:31:28;;;;;;;16.13;11.95;;;;;;;19.81;80.67;97942.25;4865842;29;20064;-74
2022/08/18 06:34:02;;;;;;;14.45;12.50;;;;;;;19.88;79.98;97944.84;4893680;29;20053;-74
2022/08/18 06:36:36;;;;;;;11.85;10.63;;;;;;;19.97;79.10;97938.13;4862891;29;20125;-74
2022/08/18 06:39:16;;;;;;;14.20;11.15;;;;;;;20.22;78.12;97937.16;4876462;29;20048;-74
2022/08/18 06:41:49;;;;;;;17.25;11.60;;;;;;;20.51;77.51;97930.97;4875762;29;20058;-74
2022/08/18 06:44:38;;;;;;;18.58;11.10;;;;;;;20.44;75.22;97927.53;4868405;29;20041;-73
2022/08/18 06:47:31;;;;;;;16.85;11.25;;;;;;;20.18;78.03;97926.88;4895272;29;20054;-74
2022/08/18 06:50:21;;;;;;;14.73;11.52;;;;;;;20.31;76.80;97928.56;4897593;29;20378;-74
2022/08/18 06:53:00;;;;;;;14.70;11.00;;;;;;;20.52;76.66;97924.53;4893448;29;20045;-74
2022/08/18 06:55:45;;;;;;;17.85;10.70;;;;;;;20.51;75.83;97920.22;4872507;29;20118;-74
2022/08/18 06:58:12;;;;;;;16.92;12.35;;;;;;;20.60;74.92;97920.72;4873079;29;20492;-73
2022/08/18 07:00:45;;;;;;;15.32;10.98;;;;;;;20.70;74.54;97922.84;4866856;29;20049;-73
2022/08/18 07:03:21;;;;;;;17.48;11.25;;;;;;;20.79;73.40;97932.19;4860108;29;20053;-74
2022/08/18 07:06:01;;;;;;;15.40;10.60;;;;;;;20.70;75.14;97930.91;4866784;29;20049;-74
2022/08/18 07:08:42;;;;;;;12.25;10.88;;;;;;;20.81;74.01;97927.41;4861340;29;20470;-74
2022/08/18 07:11:13;;;;;;;12.10;10.88;;;;;;;20.88;73.73;97920.06;4902141;29;20512;-74
2022/08/18 07:13:43;;;;;;;14.18;10.75;;;;;;;21.01;74.72;97935.97;4870179;29;20045;-73
2022/08/18 07:16:16;;;;;;;11.25;9.65;;;;;;;21.11;73.72;97935.34;4870213;29;20574;-74
2022/08/18 07:19:11;;;;;;;12.55;9.50;;;;;;;21.08;71.74;97943.09;4875130;29;20053;-73
2022/08/18 07:21:39;;;;;;;11.70;9.45;;;;;;;21.01;72.32;97945.88;4892346;29;20049;-74
2022/08/18 07:24:10;;;;;;;10.77;9.02;;;;;;;20.96;70.68;97946.59;4871205;29;20045;-73
2022/08/18 07:27:06;;;;;;;9.63;8.73;;;;;;;20.90;70.88;97952.06;4859273;29;20046;-73
2022/08/18 07:29:54;;;;;;;14.57;10.60;;;;;;;21.05;70.83;97955.94;4899324;29;20062;-73
2022/08/18 07:32:22;;;;;;;9.75;8.70;;;;;;;21.12;71.62;97958.53;4868098;29;20063;-73
2022/08/18 07:34:53;;;;;;;10.13;9.13;;;;;;;21.03;72.81;97971.47;4869018;29;20048;-74
2022/08/18 07:37:29;;;;;;;10.40;9.30;;;;;;;20.98;72.97;97965.97;4865507;29;20053;-74
2022/08/18 07:40:02;;;;;;;10.18;8.27;;;;;;;20.84;72.45;97961.88;4861253;29;20050;-73
2022/08/18 07:42:57;;;;;;;10.85;8.40;;;;;;;20.81;74.19;97960.47;4872253;29;20509;-74
2022/08/18 07:45:39;;;;;;;12.57;8.85;;;;;;;20.73;73.72;97968.88;4869301;29;20076;-74
2022/08/18 07:48:15;;;;;;;11.13;9.15;;;;;;;20.59;74.56;97968.28;4899069;29;20037;-73
2022/08/18 07:51:24;;;;;;;11.55;8.93;;;;;;;20.55;74.39;97972.47;4899530;29;20057;-73
2022/08/18 07:54:20;;;;;;;12.05;8.70;;;;;;;20.47;74.07;97971.94;4879203;29;20401;-73
2022/08/18 07:57:37;;;;;;;9.60;8.63;;;;;;;20.42;75.47;97986.06;4866280;29;20061;-73
2022/08/18 08:00:23;;;;;;;9.90;8.82;;;;;;;20.39;75.33;97984.66;4863063;29;20528;-74
2022/08/18 08:03:45;;;;;;;10.48;9.30;;;;;;;20.30;76.62;97991.41;4867170;29;20097;-74
2022/08/18 08:06:33;;;;;;;11.10;9.33;;;;;;;20.34;75.89;97986.38;4858930;29;20053;-74
2022/08/18 08:09:06;;;;;;;11.13;10.10;;;;;;;20.29;74.02;97987.06;4866788;29;20125;-73
2022/08/18 08:11:46;;;;;;;;;;;;;;;20.26;75.94;97978.66;4869427;29;20046;-73
2022/08/18 08:14:21;;;;;;;11.77;9.68;;;;;;;20.22;75.94;97978.28;4873307;29;20299;-74
2022/08/18 08:17:16;;;;;;;14.48;8.80;;;;;;;20.17;75.67;97981.66;4866559;29;20047;-73
2022/08/18 08:20:12;;;;;;;10.30;9.25;;;;;;;20.11;76.33;97992.47;4874577;29;20036;-73
2022/08/18 08:22:57;;;;;;;10.73;7.88;;;;;;;20.09;73.67;97995.41;4878920;29;20423;-73
2022/08/18 08:25:30;;;;;;;8.43;7.63;;;;;;;20.01;74.82;97993.03;4885418;29;20049;-74
2022/08/18 08:28:27;;;;;;;11.85;7.78;;;;;;;19.90;76.02;97994.56;4865671;29;20124;-73
2022/08/18 08:31:06;;;;;;;9.40;7.82;;;;;;;19.92;74.96;97992.50;4867011;29;20049;-72
2022/08/18 08:34:04;;;;;;;9.25;7.72;;;;;;;20.02;74.11;97983.91;4869699;29;20045;-73
2022/08/18 08:36:38;;;;;;;8.38;7.57;;;;;;;20.13;73.63;97958.16;4901698;29;20057;-72
2022/08/18 08:39:13;;;;;;;8.65;7.78;;;;;;;20.18;74.31;97932.25;4883739;29;20064;-73
2022/08/18 08:41:50;;;;;;;8.18;7.38;;;;;;;20.23;73.11;97928.06;4868767;29;20048;-72
2022/08/18 08:44:20;;;;;;;12.35;7.72;;;;;;;20.37;72.44;97933.00;4870382;29;20519;-73
2022/08/18 08:46:51;;;;;;;11.98;8.35;;;;;;;20.53;73.28;97936.91;4869041;29;20446;-73
2022/08/18 08:49:28;;;;;;;10.13;7.28;;;;;;;20.63;72.40;97928.31;4896399;29;20049;-72
2022/08/18 08:52:11;;;;;;;9.23;8.32;;;;;;;20.69;73.11;97937.31;4871215;29;20132;-72
2022/08/18 08:54:41;;;;;;;9.52;7.65;;;;;;;20.81;71.61;97941.66;4870968;29;20081;-73
2022/08/18 08:57:11;;;;;;;7.93;6.90;;;;;;;21.01;70.04;97943.19;4885932;29;20123;-72
2022/08/18 08:59:38;;;;;;;18.63;6.68;;;;;;;21.35;70.67;97941.53;4886438;29;20531;-72
2022/08/18 09:02:07;;;;;;;10.95;7.88;;;;;;;21.35;69.74;97928.06;4895792;29;20056;-72
2022/08/18 09:04:54;;;;;;;11.43;7.65;;;;;;;21.40;69.26;97925.53;4866890;29;21279;-72
2022/08/18 09:07:49;;;;;;;10.82;7.75;;;;;;;21.47;67.93;97937.00;4893113;29;20141;-72
2022/08/18 09:10:21;;;;;;;8.38;6.63;;;;;;;21.85;67.78;97957.19;4869551;29;20065;-72
2022/08/18 09:13:09;;;;;;;8.70;7.45;;;;;;;22.11;67.88;97958.47;4873217;29;20051;-72
2022/08/18 09:16:15;;;;;;;11.32;7.57;;;;;;;22.44;65.62;97935.41;4872737;29;20049;-72
2022/08/18 09:19:01;;;;;;;8.35;7.55;;;;;;;22.49;65.11;97926.59;4869162;29;20044;-73
2022/08/18 09:21:45;;;;;;;11.82;7.75;;;;;;;22.21;66.58;97912.09;4864686;29;20116;-72
2022/08/18 09:24:21;;;;;;;9.93;7.47;;;;;;;22.12;66.60;97908.94;4866490;29;20045;-72
2022/08/18 09:26:51;;;;;;;14.30;9.35;;;;;;;22.05;66.99;97902.06;4901128;29;20049;-72
2022/08/18 09:29:22;;;;;;;9.13;8.05;;;;;;;22.15;67.02;97896.88;4873136;29;20120;-72
2022/08/18 09:32:17;;;;;;;10.68;8.40;;;;;;;22.27;66.85;97915.69;4867462;29;20386;-72
2022/08/18 09:34:53;;;;;;;15.43;8.68;;;;;;;22.42;66.39;97923.22;4863861;29;20048;-73
2022/08/18 09:37:31;;;;;;;10.05;8.23;;;;;;;22.63;66.02;97930.59;4865630;29;20061;-72
2022/08/18 09:43:16;;;;;;;10.98;9.20;;;;;;;22.31;65.46;97933.81;4892393;29;20056;-72
2022/08/18 09:45:45;;;;;;;11.57;9.43;;;;;;;22.29;66.40;97940.50;4867027;29;20050;-72
2022/08/18 09:48:13;;;;;;;10.20;9.20;;;;;;;23.03;64.12;97937.72;4868367;29;20053;-72
2022/08/18 09:50:54;;;;;;;9.73;8.73;;;;;;;23.41;62.43;97928.84;4863058;29;20049;-71
2022/08/18 09:54:00;;;;;;;9.13;8.32;;;;;;;23.06;62.98;97926.44;4864764;29;20050;-72
2022/08/18 09:56:49;;;;;;;9.88;8.75;;;;;;;23.30;62.75;97926.22;4863334;29;20057;-72
2022/08/18 09:59:33;;;;;;;10.05;9.00;;;;;;;23.14;62.59;97942.19;4869669;29;20045;-73
2022/08/18 10:02:06;;;;;;;9.43;8.52;;;;;;;23.34;62.59;97943.59;4869709;29;20140;-73
2022/08/18 10:04:49;;;;;;;10.05;9.05;;;;;;;22.89;63.59;97941.81;4896785;29;20104;-72
2022/08/18 10:07:32;;;;;;;11.70;8.52;;;;;;;23.12;63.93;97941.66;4863634;29;20136;-73
2022/08/18 10:10:20;;;;;;;13.57;9.50;;;;;;;23.19;62.46;97936.88;4865041;29;20128;-72
2022/08/18 10:13:25;;;;;;;10.32;8.60;;;;;;;23.18;62.82;97927.16;4863112;29;20045;-73
2022/08/18 10:15:58;;;;;;;9.23;7.85;;;;;;;23.13;63.19;97928.97;4872926;29;20037;-73
2022/08/18 10:19:07;;;;;;;10.05;8.85;;;;;;;23.27;62.14;97910.53;4869468;29;20056;-73
2022/08/18 10:21:55;;;;;;;9.02;8.15;;;;;;;23.43;61.13;97899.72;4851702;29;20056;-72
2022/08/18 10:24:27;;;;;;;9.88;8.40;;;;;;;23.25;62.34;97902.72;4867799;29;20059;-72
2022/08/18 10:27:08;;;;;;;9.63;8.63;;;;;;;23.29;61.64;97903.84;4870330;29;20052;-73
2022/08/18 10:29:50;;;;;;;13.27;8.40;;;;;;;23.30;62.60;97910.03;4863690;29;20072;-72
2022/08/18 10:32:22;;;;;;;10.70;8.93;;;;;;;23.26;62.88;97893.53;4899589;29;20049;-72
2022/08/18 10:34:55;;;;;;;10.57;9.55;;;;;;;23.26;61.58;97882.75;4869651;29;20058;-73
2022/08/18 10:37:38;;;;;;;11.02;8.40;;;;;;;23.26;62.38;97871.13;4867572;29;20124;-72
2022/08/18 10:40:15;;;;;;;12.43;9.85;;;;;;;23.17;61.98;97860.78;4879179;29;20045;-73
2022/08/18 10:42:54;;;;;;;13.75;10.32;;;;;;;23.12;61.34;97847.22;4871472;29;20048;-73
2022/08/18 10:45:29;;;;;;;10.50;8.98;;;;;;;23.21;61.56;97821.41;4865698;29;20054;-72
2022/08/18 10:48:20;;;;;;;11.13;9.18;;;;;;;23.36;62.09;97822.69;4867241;29;20072;-73
2022/08/18 10:51:10;;;;;;;11.10;9.93;;;;;;;23.19;61.05;97828.13;4870893;29;20577;-72
2022/08/18 10:53:45;;;;;;;12.80;9.45;;;;;;;23.70;62.28;97854.91;4868775;29;20050;-72
2022/08/18 10:56:31;;;;;;;11.00;9.88;;;;;;;24.06;59.52;97859.66;4867928;29;20061;-73
2022/08/18 10:59:31;;;;;;;15.52;9.88;;;;;;;24.04;59.87;97845.59;4864191;29;20040;-72
2022/08/18 11:02:30;;;;;;;11.27;9.13;;;;;;;24.48;59.47;97841.94;4863786;29;20050;-72
2022/08/18 11:04:57;;;;;;;11.32;10.13;;;;;;;24.35;59.76;97835.03;4867775;29;20045;-72
2022/08/18 11:07:28;;;;;;;13.93;10.13;;;;;;;24.45;57.51;97835.16;4875792;29;20078;-74
2022/08/18 11:10:20;;;;;;;11.20;10.20;;;;;;;24.57;57.12;97835.00;4906679;29;20056;-73
2022/08/18 11:13:22;;;;;;;10.75;9.70;;;;;;;24.54;57.24;97827.41;4878853;29;20341;-72
2022/08/18 11:16:12;;;;;;;13.27;11.23;;;;;;;24.45;58.45;97829.75;4873159;29;20061;-71
2022/08/18 11:18:42;;;;;;;11.05;9.65;;;;;;;24.43;58.56;97842.66;4868037;29;20085;-73
2022/08/18 11:21:33;;;;;;;11.23;10.05;;;;;;;24.88;58.17;97840.59;4863521;29;20109;-72
2022/08/18 11:24:13;;;;;;;13.02;9.13;;;;;;;25.31;55.15;97833.28;4869613;29;20064;-72
2022/08/18 11:26:50;;;;;;;11.80;10.13;;;;;;;24.97;55.45;97826.31;4872752;29;20049;-72
2022/08/18 11:29:23;;;;;;;9.60;8.18;;;;;;;25.42;54.46;97842.25;4866770;29;20045;-72
2022/08/18 11:31:55;;;;;;;12.23;9.30;;;;;;;25.17;54.68;97841.88;4862313;29;20466;-72
2022/08/18 11:34:52;;;;;;;10.35;7.75;;;;;;;25.74;55.28;97832.06;4873098;29;20311;-72
2022/08/18 11:37:25;;;;;;;9.43;8.52;;;;;;;25.23;54.71;97831.88;4876741;29;20401;-73
2022/08/18 11:39:59;;;;;;;11.85;9.77;;;;;;;24.88;55.08;97846.00;4871850;29;20084;-73
2022/08/18 11:42:33;;;;;;;10.05;9.05;;;;;;;25.20;56.43;97837.84;4867536;29;20041;-72
2022/08/18 11:45:13;;;;;;;16.20;8.73;;;;;;;25.52;53.88;97840.41;4872115;29;20093;-72
2022/08/18 11:48:13;;;;;;;9.32;8.40;;;;;;;25.69;53.80;97837.47;4889381;29;20048;-72
2022/08/18 11:50:47;;;;;;;10.90;9.80;;;;;;;25.94;53.31;97830.53;4869525;29;20053;-72
2022/08/18 11:53:34;;;;;;;10.55;8.45;;;;;;;25.71;53.95;97829.88;4897731;29;20105;-73
2022/08/18 11:56:17;;;;;;;11.68;9.43;;;;;;;25.39;54.76;97814.63;4869536;29;20045;-72
2022/08/18 11:59:06;;;;;;;10.73;9.63;;;;;;;25.77;52.52;97811.75;4899106;29;20513;-73
2022/08/18 12:01:49;;;;;;;14.07;9.10;;;;;;;25.39;54.33;97808.41;4873829;29;20047;-73
2022/08/18 12:04:38;;;;;;;10.38;9.48;;;;;;;25.14;55.17;97809.88;4865641;29;20508;-73
2022/08/18 12:07:11;;;;;;;10.57;8.43;;;;;;;25.01;55.81;97799.53;4869016;29;20109;-73
2022/08/18 12:10:01;;;;;;;14.30;9.85;;;;;;;24.86;56.48;97789.47;4872820;29;20057;-72
2022/08/18 12:12:47;;;;;;;14.32;8.75;;;;;;;25.08;55.62;97793.88;4872840;29;20518;-73
2022/08/18 12:15:31;;;;;;;10.95;9.65;;;;;;;25.06;54.29;97788.72;4889265;29;20771;-72